Time;durP1;ratioP1;P1;durP2;ratioP2;P2;SDS_P1;SDS_P2;PMS_P1;PMS_P2;Temp;Humidity;BMP_temperature;BMP_pressure;BME280_temperature;BME280_humidity;BME280_pressure;Samples;Min_cycle;Max_cycle;Signal;HPM_P1;HPM_P2
2023/03/02 00:01:10;;;;;;;6.38;4.30;;;10.50;57.90;;;;;;4999596;28;20140;-77
2023/03/02 00:03:38;;;;;;;7.20;4.00;;;10.50;57.90;;;;;;5001640;28;20482;-75
2023/03/02 00:06:05;;;;;;;4.63;3.88;;;10.50;57.90;;;;;;5001755;28;20030;-76
2023/03/02 00:08:33;;;;;;;5.55;4.10;;;10.50;57.90;;;;;;5001493;28;20645;-77
2023/03/02 00:11:00;;;;;;;5.47;4.28;;;10.50;58.00;;;;;;5011002;28;20038;-77
2023/03/02 00:13:28;;;;;;;5.47;3.72;;;10.50;58.00;;;;;;5000977;28;20053;-77
2023/03/02 00:15:54;;;;;;;4.13;3.70;;;10.50;58.00;;;;;;5008439;28;20040;-77
2023/03/02 00:18:20;;;;;;;5.53;3.80;;;10.50;58.10;;;;;;5010312;28;20017;-78
2023/03/02 00:20:46;;;;;;;5.28;3.80;;;10.40;57.90;;;;;;5006356;28;20501;-77
2023/03/02 00:23:12;;;;;;;5.43;3.85;;;10.40;57.90;;;;;;5002063;28;20026;-77
2023/03/02 00:25:39;;;;;;;7.80;4.45;;;10.40;58.00;;;;;;5000158;28;20038;-77
2023/03/02 00:28:04;;;;;;;4.75;3.70;;;10.40;57.90;;;;;;4999357;28;20397;-77
2023/03/02 00:30:30;;;;;;;7.07;3.80;;;10.40;57.90;;;;;;5005992;28;20450;-77
2023/03/02 00:32:57;;;;;;;6.97;4.43;;;10.40;58.00;;;;;;5003245;28;20064;-77
2023/03/02 00:35:25;;;;;;;5.63;4.00;;;10.30;57.80;;;;;;5006197;28;20038;-77
2023/03/02 00:37:52;;;;;;;5.13;3.55;;;10.40;58.00;;;;;;5005226;28;20033;-77
2023/03/02 00:40:18;;;;;;;5.03;3.70;;;10.30;57.80;;;;;;5007838;28;20112;-77
2023/03/02 00:42:44;;;;;;;5.25;3.45;;;10.30;57.80;;;;;;5004728;28;20230;-77
2023/03/02 00:45:10;;;;;;;5.95;3.65;;;10.30;57.90;;;;;;5006431;28;20067;-77
2023/03/02 00:47:36;;;;;;;5.32;3.33;;;10.30;57.90;;;;;;5011911;28;20029;-77
2023/03/02 00:50:04;;;;;;;5.85;3.50;;;10.20;57.70;;;;;;5017549;28;20045;-77
2023/03/02 00:52:31;;;;;;;4.20;3.35;;;10.30;58.00;;;;;;5008696;28;20033;-77
2023/03/02 00:54:57;;;;;;;5.57;3.47;;;10.20;57.80;;;;;;5015472;28;20030;-77
2023/03/02 00:57:24;;;;;;;5.40;3.10;;;10.20;57.80;;;;;;5015446;28;20040;-76
2023/03/02 00:59:50;;;;;;;4.25;2.90;;;10.20;57.90;;;;;;5001536;28;20083;-77
2023/03/02 01:02:26;;;;;;;3.95;3.10;;;10.20;57.90;;;;;;5009706;28;20287;-77
2023/03/02 01:04:53;;;;;;;4.47;3.08;;;10.20;57.90;;;;;;4999244;28;20533;-74
2023/03/02 01:07:20;;;;;;;5.70;2.92;;;10.20;57.90;;;;;;5016340;28;20071;-76
2023/03/02 01:09:47;;;;;;;5.68;3.25;;;10.20;57.90;;;;;;5017254;28;20041;-75
2023/03/02 01:12:15;;;;;;;4.10;2.40;;;10.20;57.90;;;;;;5017928;28;20040;-77
2023/03/02 01:14:44;;;;;;;5.43;3.05;;;10.10;57.70;;;;;;5018534;28;20413;-76
2023/03/02 01:17:11;;;;;;;4.93;2.92;;;10.10;57.70;;;;;;5016363;28;20037;-77
2023/03/02 01:19:39;;;;;;;3.95;2.67;;;10.10;57.70;;;;;;5009439;28;20041;-77
2023/03/02 01:22:06;;;;;;;3.70;2.28;;;10.10;57.70;;;;;;5007125;28;20393;-77
2023/03/02 01:24:32;;;;;;;3.33;2.70;;;10.10;57.70;;;;;;5014890;28;20049;-77
2023/03/02 01:26:58;;;;;;;5.05;2.70;;;10.10;57.70;;;;;;5015937;28;20053;-77
2023/03/02 01:29:25;;;;;;;5.75;2.58;;;10.10;57.70;;;;;;5007974;28;20042;-77
2023/03/02 01:31:51;;;;;;;4.45;2.58;;;10.10;57.70;;;;;;5018913;28;20033;-78
2023/03/02 01:34:16;;;;;;;3.17;2.33;;;10.10;57.70;;;;;;5016743;28;20796;-77
2023/03/02 01:36:45;;;;;;;4.10;2.50;;;10.00;57.50;;;;;;5017488;28;20025;-77
2023/03/02 01:39:15;;;;;;;7.45;2.72;;;10.10;57.70;;;;;;4998263;28;20029;-77
2023/03/02 01:41:45;;;;;;;4.40;2.30;;;10.00;57.50;;;;;;5002952;28;20674;-78
2023/03/02 01:44:47;;;;;;;4.50;2.30;;;10.00;57.50;;;;;;4998876;28;20030;-77
2023/03/02 01:47:20;;;;;;;5.45;2.17;;;10.00;57.50;;;;;;5004927;28;20025;-78
2023/03/02 01:50:15;;;;;;;3.45;1.92;;;10.00;57.50;;;;;;5014286;28;20096;-78
2023/03/02 01:52:41;;;;;;;3.65;2.08;;;10.00;57.50;;;;;;4986078;28;21056;-78
2023/03/02 01:55:11;;;;;;;3.90;2.40;;;10.00;57.50;;;;;;4998574;28;20644;-78
2023/03/02 01:57:42;;;;;;;3.67;2.58;;;10.00;57.50;;;;;;5016222;28;20125;-78
2023/03/02 02:00:14;;;;;;;9.07;3.25;;;9.90;57.30;;;;;;5003753;28;20042;-77
2023/03/02 02:02:41;;;;;;;2.70;2.13;;;10.00;57.50;;;;;;5002438;28;20026;-77
2023/03/02 02:05:15;;;;;;;4.10;2.13;;;10.00;57.50;;;;;;5000438;28;20679;-76
2023/03/02 02:07:41;;;;;;;5.00;2.25;;;9.90;57.30;;;;;;4998505;28;20038;-78
2023/03/02 02:10:08;;;;;;;2.90;2.17;;;9.90;57.30;;;;;;5003747;28;20037;-77
2023/03/02 02:12:34;;;;;;;4.53;1.80;;;9.90;57.30;;;;;;4999100;28;20034;-77
2023/03/02 02:15:01;;;;;;;3.70;1.90;;;9.90;57.30;;;;;;4998086;28;20049;-77
2023/03/02 02:17:28;;;;;;;3.28;1.80;;;9.90;57.30;;;;;;5001768;28;20111;-76
2023/03/02 02:19:59;;;;;;;4.20;1.98;;;9.90;57.30;;;;;;5005267;28;20029;-78
2023/03/02 02:22:39;;;;;;;2.53;1.90;;;9.90;57.30;;;;;;4985499;28;20037;-78
2023/03/02 02:25:29;;;;;;;3.63;2.17;;;9.90;57.30;;;;;;5004082;28;20093;-78
2023/03/02 02:27:56;;;;;;;3.00;2.13;;;9.90;57.30;;;;;;5002950;28;20174;-78
2023/03/02 02:30:23;;;;;;;4.45;2.03;;;9.90;57.20;;;;;;5008871;28;20111;-78
2023/03/02 02:32:53;;;;;;;3.28;1.90;;;9.90;57.20;;;;;;5016559;28;20197;-78
2023/03/02 02:35:23;;;;;;;2.78;2.03;;;9.90;57.20;;;;;;5020424;28;20587;-78
2023/03/02 02:37:55;;;;;;;5.82;1.80;;;9.90;57.20;;;;;;5021466;28;20064;-78
2023/03/02 02:40:46;;;;;;;4.15;1.60;;;9.90;57.20;;;;;;5019111;28;20044;-78
2023/03/02 02:43:18;;;;;;;4.32;1.83;;;9.90;57.20;;;;;;5016614;28;20053;-77
2023/03/02 02:45:46;;;;;;;2.55;1.80;;;9.90;57.10;;;;;;5016664;28;20046;-78
2023/03/02 02:48:19;;;;;;;3.15;2.00;;;9.80;56.90;;;;;;5016155;28;20663;-78
2023/03/02 02:50:46;;;;;;;2.50;1.67;;;9.80;56.90;;;;;;5016306;28;20042;-78
2023/03/02 02:53:16;;;;;;;4.88;2.25;;;9.80;57.00;;;;;;5009379;28;20048;-77
2023/03/02 02:55:46;;;;;;;4.28;1.80;;;9.80;56.90;;;;;;5009705;28;20469;-77
2023/03/02 02:58:22;;;;;;;2.88;1.63;;;9.80;56.90;;;;;;5009402;28;20026;-76
2023/03/02 03:00:49;;;;;;;3.15;2.00;;;9.80;56.90;;;;;;5011186;28;21200;-77
2023/03/02 03:03:29;;;;;;;3.22;2.20;;;9.80;56.90;;;;;;5012147;28;20034;-78
2023/03/02 03:05:59;;;;;;;3.58;1.85;;;9.70;56.70;;;;;;5010321;28;20029;-76
2023/03/02 03:08:44;;;;;;;3.05;1.75;;;9.80;56.90;;;;;;5008559;28;20037;-77
2023/03/02 03:11:22;;;;;;;4.47;2.40;;;9.70;56.80;;;;;;5014104;28;20079;-77
2023/03/02 03:14:00;;;;;;;4.30;1.80;;;9.70;56.80;;;;;;5012167;28;20072;-77
2023/03/02 03:16:29;;;;;;;3.33;2.30;;;9.70;56.80;;;;;;5008017;28;20694;-77
2023/03/02 03:19:02;;;;;;;3.58;2.10;;;9.70;56.80;;;;;;5013625;28;20037;-76
2023/03/02 03:21:28;;;;;;;;;;;9.70;56.80;;;;;;5009473;28;20280;-76
2023/03/02 03:23:54;;;;;;;5.00;2.38;;;9.70;56.80;;;;;;5012853;28;19956;-76
2023/03/02 03:26:20;;;;;;;2.75;1.92;;;9.70;56.70;;;;;;5007500;28;20072;-77
2023/03/02 03:28:46;;;;;;;4.40;2.42;;;9.70;56.70;;;;;;5011279;28;20124;-77
2023/03/02 03:31:12;;;;;;;3.40;2.47;;;9.60;56.50;;;;;;5008224;28;20192;-77
2023/03/02 03:33:38;;;;;;;3.70;1.70;;;9.60;56.50;;;;;;5016657;28;20037;-77
2023/03/02 03:36:05;;;;;;;5.15;2.72;;;9.60;56.50;;;;;;5015258;28;20529;-77
2023/03/02 03:38:31;;;;;;;3.58;2.17;;;9.60;56.60;;;;;;5012064;28;20068;-77
2023/03/02 03:40:57;;;;;;;3.50;2.28;;;9.60;56.60;;;;;;4996942;28;20035;-76
2023/03/02 03:43:23;;;;;;;5.65;2.63;;;9.60;56.60;;;;;;5011517;28;20200;-76
2023/03/02 03:45:52;;;;;;;3.08;2.60;;;9.60;57.20;;;;;;5007292;28;20030;-77
2023/03/02 03:48:18;;;;;;;3.97;2.22;;;9.60;56.70;;;;;;5011587;28;20037;-76
2023/03/02 03:50:46;;;;;;;4.53;2.83;;;9.60;56.70;;;;;;5014161;28;20509;-76
2023/03/02 03:53:12;;;;;;;6.18;2.63;;;9.60;56.70;;;;;;5007845;28;20116;-77
2023/03/02 03:55:38;;;;;;;3.08;2.78;;;9.50;56.50;;;;;;5007972;28;20478;-77
2023/03/02 03:58:05;;;;;;;4.90;2.72;;;9.50;56.50;;;;;;5009741;28;20033;-77
2023/03/02 04:00:31;;;;;;;3.53;2.33;;;9.50;56.50;;;;;;5011703;28;20038;-75
2023/03/02 04:03:04;;;;;;;;;;;9.50;56.50;;;;;;4994645;28;20069;-76
2023/03/02 04:05:31;;;;;;;3.35;2.90;;;9.50;56.50;;;;;;5009800;28;19920;-75
2023/03/02 04:08:00;;;;;;;3.28;2.70;;;9.50;56.50;;;;;;5009315;28;20374;-75
2023/03/02 04:10:28;;;;;;;4.15;2.58;;;9.50;56.50;;;;;;5009996;28;20053;-76
2023/03/02 04:12:54;;;;;;;4.07;2.65;;;9.50;56.50;;;;;;5007816;28;20401;-76
2023/03/02 04:15:21;;;;;;;3.40;2.53;;;9.50;56.50;;;;;;5008822;28;20401;-76
2023/03/02 04:17:50;;;;;;;5.40;2.83;;;9.50;56.50;;;;;;4991354;28;20502;-76
2023/03/02 04:20:19;;;;;;;5.85;2.67;;;9.50;56.60;;;;;;5013350;28;20137;-75
2023/03/02 04:22:51;;;;;;;3.85;2.72;;;9.50;56.60;;;;;;4990718;28;20493;-75
2023/03/02 04:25:20;;;;;;;3.85;3.00;;;9.50;56.60;;;;;;5008585;28;20516;-75
2023/03/02 04:27:49;;;;;;;7.47;3.28;;;9.40;56.40;;;;;;4989798;28;20244;-74
2023/03/02 04:30:18;;;;;;;3.17;2.88;;;9.50;56.50;;;;;;5003132;28;20092;-75
2023/03/02 04:32:44;;;;;;;3.47;3.05;;;9.40;56.40;;;;;;5009311;28;20022;-76
2023/03/02 04:35:12;;;;;;;3.70;2.70;;;9.40;56.40;;;;;;5018472;28;20033;-75
2023/03/02 04:37:40;;;;;;;4.68;3.00;;;9.40;56.40;;;;;;5005972;28;20017;-76
2023/03/02 04:40:08;;;;;;;4.57;2.53;;;9.40;56.40;;;;;;5007333;28;20035;-75
2023/03/02 04:42:35;;;;;;;5.63;3.25;;;9.40;56.40;;;;;;5007566;28;20077;-74
2023/03/02 04:45:01;;;;;;;4.30;2.97;;;9.40;56.40;;;;;;5006764;28;20045;-75
2023/03/02 04:47:27;;;;;;;4.55;3.00;;;9.40;56.30;;;;;;5007135;28;20030;-76
2023/03/02 04:49:53;;;;;;;4.22;3.00;;;9.40;56.30;;;;;;5019905;28;20041;-75
2023/03/02 04:52:24;;;;;;;5.78;2.90;;;9.30;56.20;;;;;;5012642;28;20030;-75
2023/03/02 04:54:50;;;;;;;3.90;3.00;;;9.30;56.20;;;;;;5016647;28;20072;-75
2023/03/02 04:57:16;;;;;;;4.63;3.00;;;9.30;56.20;;;;;;5005390;28;20033;-75
2023/03/02 04:59:42;;;;;;;4.05;3.22;;;9.30;56.10;;;;;;5010231;28;20038;-75
2023/03/02 05:02:09;;;;;;;4.68;2.72;;;9.30;56.20;;;;;;5007644;28;20034;-75
2023/03/02 05:04:35;;;;;;;6.25;2.88;;;9.30;56.10;;;;;;5011658;28;20034;-75
2023/03/02 05:07:01;;;;;;;4.03;3.25;;;9.30;56.10;;;;;;5009387;28;20329;-74
2023/03/02 05:09:29;;;;;;;3.80;2.90;;;9.30;56.10;;;;;;5011204;28;20034;-76
2023/03/02 05:11:57;;;;;;;3.70;2.78;;;9.30;56.10;;;;;;5009537;28;20057;-76
2023/03/02 05:14:24;;;;;;;4.82;2.72;;;9.30;56.10;;;;;;5009738;28;20030;-75
2023/03/02 05:16:50;;;;;;;3.25;2.70;;;9.30;56.10;;;;;;5005406;28;20109;-76
2023/03/02 05:19:17;;;;;;;2.97;2.65;;;9.30;56.00;;;;;;5009837;28;20587;-76
2023/03/02 05:21:44;;;;;;;4.13;2.90;;;9.30;56.00;;;;;;5009805;28;20124;-76
2023/03/02 05:24:12;;;;;;;5.47;2.90;;;9.30;56.00;;;;;;5011584;28;20247;-76
2023/03/02 05:26:38;;;;;;;4.55;3.15;;;9.30;55.90;;;;;;5009339;28;20081;-76
2023/03/02 05:29:04;;;;;;;3.13;2.83;;;9.30;55.90;;;;;;5007520;28;20026;-75
2023/03/02 05:31:37;;;;;;;2.03;1.92;;;9.30;55.90;;;;;;5008868;28;20596;-74
2023/03/02 05:34:05;;;;;;;3.40;2.75;;;9.30;55.90;;;;;;5015195;28;20033;-75
2023/03/02 05:36:31;;;;;;;3.13;2.63;;;9.30;55.90;;;;;;5013973;28;20489;-75
2023/03/02 05:38:57;;;;;;;3.83;2.50;;;9.30;55.80;;;;;;5010133;28;20036;-75
2023/03/02 05:41:23;;;;;;;3.08;2.83;;;9.30;55.80;;;;;;5012133;28;20017;-76
2023/03/02 05:43:49;;;;;;;2.40;2.20;;;9.20;55.60;;;;;;5010611;28;20034;-76
2023/03/02 05:46:16;;;;;;;3.53;2.40;;;9.30;55.80;;;;;;5012855;28;20025;-76
2023/03/02 05:48:42;;;;;;;3.20;2.47;;;9.30;55.70;;;;;;5010332;28;20083;-77
2023/03/02 05:51:08;;;;;;;2.85;2.33;;;9.30;55.70;;;;;;5008546;28;20038;-74
2023/03/02 05:53:34;;;;;;;2.97;2.38;;;9.30;55.70;;;;;;5011717;28;20060;-75
2023/03/02 05:56:00;;;;;;;2.97;2.67;;;9.30;55.70;;;;;;5013107;28;20618;-75
2023/03/02 05:58:26;;;;;;;7.90;3.20;;;9.30;55.70;;;;;;5011024;28;20108;-75
2023/03/02 06:00:52;;;;;;;2.85;2.45;;;9.30;55.60;;;;;;5012909;28;20476;-74
2023/03/02 06:03:18;;;;;;;3.50;2.50;;;9.30;55.60;;;;;;5013227;28;20060;-74
2023/03/02 06:05:49;;;;;;;2.88;2.67;;;9.30;55.60;;;;;;5012625;28;20100;-74
2023/03/02 06:08:17;;;;;;;3.05;2.75;;;9.30;55.50;;;;;;5015872;28;20037;-75
2023/03/02 06:10:43;;;;;;;2.55;2.35;;;9.30;55.50;;;;;;5013339;28;20079;-76
2023/03/02 06:13:09;;;;;;;3.80;2.60;;;9.30;55.40;;;;;;5010927;28;20040;-76
2023/03/02 06:15:35;;;;;;;4.07;2.28;;;9.30;55.40;;;;;;5008002;28;20033;-76
2023/03/02 06:18:02;;;;;;;3.40;2.65;;;9.30;55.30;;;;;;5010966;28;20416;-76
2023/03/02 06:20:28;;;;;;;3.53;2.22;;;9.30;55.30;;;;;;5013625;28;20495;-75
2023/03/02 06:22:54;;;;;;;4.50;2.60;;;9.30;55.30;;;;;;5005023;28;20032;-74
2023/03/02 06:25:23;;;;;;;4.45;2.45;;;9.30;55.20;;;;;;5007838;28;20037;-74
2023/03/02 06:27:53;;;;;;;3.78;2.20;;;9.30;55.30;;;;;;5010390;28;20057;-74
2023/03/02 06:30:22;;;;;;;4.55;2.42;;;9.30;55.50;;;;;;5007199;28;20057;-74
2023/03/02 06:32:48;;;;;;;2.28;2.03;;;9.30;56.00;;;;;;5008361;28;20276;-74
2023/03/02 06:35:14;;;;;;;3.45;2.35;;;9.40;56.60;;;;;;5013301;28;20102;-74
2023/03/02 06:37:40;;;;;;;3.17;2.35;;;9.50;57.10;;;;;;5008535;28;20037;-74
2023/03/02 06:40:12;;;;;;;2.67;2.47;;;9.70;57.70;;;;;;5008088;28;20112;-76
2023/03/02 06:42:40;;;;;;;4.18;1.80;;;9.80;57.90;;;;;;5007354;28;20068;-74
2023/03/02 06:45:06;;;;;;;4.82;2.08;;;9.90;58.10;;;;;;5004133;28;20052;-75
2023/03/02 06:47:32;;;;;;;2.45;1.95;;;10.00;58.30;;;;;;5010161;28;20068;-76
2023/03/02 06:49:59;;;;;;;4.90;2.15;;;10.20;58.70;;;;;;5012408;28;20601;-74
2023/03/02 06:52:26;;;;;;;2.78;1.80;;;10.30;58.70;;;;;;5015696;28;20216;-75
2023/03/02 06:54:53;;;;;;;3.17;1.90;;;10.40;58.90;;;;;;5014012;28;20038;-75
2023/03/02 06:57:19;;;;;;;5.15;2.38;;;10.60;59.10;;;;;;5010441;28;20655;-74
2023/03/02 06:59:45;;;;;;;4.93;2.22;;;10.60;58.90;;;;;;5013218;28;20033;-75
2023/03/02 07:02:11;;;;;;;2.80;2.17;;;10.60;58.80;;;;;;5012665;28;20559;-74
2023/03/02 07:04:37;;;;;;;4.68;2.50;;;10.60;58.70;;;;;;5009490;28;20112;-75
2023/03/02 07:07:03;;;;;;;3.65;2.47;;;10.60;58.60;;;;;;5016232;28;20045;-75
2023/03/02 07:09:32;;;;;;;4.93;2.67;;;10.60;58.50;;;;;;5007707;28;20322;-75
2023/03/02 07:11:59;;;;;;;4.40;2.70;;;10.60;58.50;;;;;;5009403;28;20176;-75
2023/03/02 07:14:24;;;;;;;2.28;2.13;;;10.60;58.50;;;;;;5004048;28;20184;-74
2023/03/02 07:16:50;;;;;;;3.10;2.28;;;10.60;58.50;;;;;;5011398;28;20454;-74
2023/03/02 07:19:16;;;;;;;2.70;2.50;;;10.50;58.20;;;;;;5011442;28;20091;-75
2023/03/02 07:21:42;;;;;;;2.53;2.33;;;10.50;58.20;;;;;;5008267;28;20026;-74
2023/03/02 07:24:08;;;;;;;3.90;2.15;;;10.50;58.10;;;;;;5006540;28;20183;-75
2023/03/02 07:26:34;;;;;;;3.55;2.55;;;10.50;58.10;;;;;;4991291;28;20106;-76
2023/03/02 07:29:00;;;;;;;3.35;1.80;;;10.60;58.20;;;;;;5007673;28;20034;-76
2023/03/02 07:31:27;;;;;;;4.60;2.20;;;10.60;58.40;;;;;;5007974;28;20195;-76
2023/03/02 07:33:53;;;;;;;4.60;2.55;;;10.70;58.90;;;;;;5007894;28;20037;-75
2023/03/02 07:36:19;;;;;;;2.22;2.03;;;10.70;58.80;;;;;;5010665;28;20518;-75
2023/03/02 07:38:45;;;;;;;3.00;2.67;;;10.80;58.60;;;;;;5015372;28;20744;-76
2023/03/02 07:41:11;;;;;;;3.20;2.90;;;10.80;58.30;;;;;;5015685;28;20055;-77
2023/03/02 07:43:37;;;;;;;3.60;2.67;;;10.80;58.00;;;;;;5013287;28;20116;-79
2023/03/02 07:46:04;;;;;;;2.72;2.53;;;10.70;57.60;;;;;;5008747;28;20302;-79
2023/03/02 07:49:02;;;;;;;2.75;2.55;;;10.60;57.30;;;;;;5006096;23;20042;-75
2023/03/02 07:51:29;;;;;;;6.45;3.40;;;10.60;57.20;;;;;;4995675;28;20382;-74
2023/03/02 07:53:55;;;;;;;2.40;2.20;;;10.50;56.90;;;;;;4983838;28;20037;-75
2023/03/02 07:56:22;;;;;;;3.97;2.55;;;10.40;56.60;;;;;;5000984;28;20029;-75
2023/03/02 07:58:48;;;;;;;2.75;2.55;;;10.40;56.40;;;;;;4999515;28;20033;-74
2023/03/02 08:01:14;;;;;;;3.83;3.53;;;10.30;56.10;;;;;;4998963;28;20490;-75
2023/03/02 08:03:42;;;;;;;3.13;2.88;;;10.20;55.80;;;;;;4991560;28;20033;-75
2023/03/02 08:06:10;;;;;;;3.10;2.80;;;10.20;55.70;;;;;;4999824;28;20030;-75
2023/03/02 08:08:37;;;;;;;3.30;3.00;;;10.20;55.50;;;;;;4978401;28;20131;-75
2023/03/02 08:11:15;;;;;;;3.30;3.00;;;10.20;55.40;;;;;;4975032;28;20035;-76
2023/03/02 08:13:42;;;;;;;3.00;2.70;;;10.20;55.20;;;;;;4995524;28;20041;-75
2023/03/02 08:16:10;;;;;;;3.30;3.00;;;10.10;54.90;;;;;;4987694;28;20062;-76
2023/03/02 08:18:37;;;;;;;3.03;2.80;;;10.20;55.00;;;;;;4998855;28;20056;-76
2023/03/02 08:21:10;;;;;;;3.15;2.85;;;10.10;54.60;;;;;;4996695;28;20030;-76
2023/03/02 08:23:36;;;;;;;3.40;3.10;;;10.20;54.60;;;;;;4998148;28;20503;-75
2023/03/02 08:26:02;;;;;;;3.33;3.13;;;10.20;54.50;;;;;;4990726;28;20030;-76
2023/03/02 08:28:28;;;;;;;4.55;3.58;;;10.20;54.30;;;;;;4994984;28;20034;-75
2023/03/02 08:30:59;;;;;;;3.42;3.10;;;10.20;54.20;;;;;;4982380;28;20471;-75
2023/03/02 08:33:27;;;;;;;4.07;3.53;;;10.20;54.10;;;;;;4976467;28;20038;-75
2023/03/02 08:35:59;;;;;;;4.40;3.55;;;10.30;54.10;;;;;;5000770;28;20064;-75
2023/03/02 08:38:26;;;;;;;3.50;3.30;;;10.30;53.90;;;;;;4993882;28;20036;-74
2023/03/02 08:40:53;;;;;;;3.83;3.42;;;10.30;53.60;;;;;;4994570;28;20511;-77
2023/03/02 08:43:21;;;;;;;4.28;3.60;;;10.40;53.60;;;;;;4972189;28;20109;-76
2023/03/02 08:45:52;;;;;;;4.07;3.67;;;10.30;53.30;;;;;;4999866;28;20072;-75
2023/03/02 08:48:20;;;;;;;4.07;3.70;;;10.30;53.30;;;;;;4987125;28;20069;-76
2023/03/02 08:50:58;;;;;;;5.30;4.20;;;10.20;53.10;;;;;;4995561;28;20129;-75
2023/03/02 08:53:26;;;;;;;4.93;4.53;;;10.10;52.80;;;;;;4975303;28;20585;-76
2023/03/02 08:55:53;;;;;;;4.80;4.35;;;10.10;52.80;;;;;;4996563;28;20140;-76
2023/03/02 08:58:22;;;;;;;4.30;3.90;;;10.00;52.60;;;;;;4993974;28;20034;-75
2023/03/02 09:00:48;;;;;;;5.10;4.70;;;10.00;52.60;;;;;;4998014;28;20042;-76
2023/03/02 09:03:15;;;;;;;6.20;4.65;;;10.00;52.60;;;;;;4999702;28;20057;-76
2023/03/02 09:05:41;;;;;;;4.88;4.43;;;9.90;52.40;;;;;;4997681;28;20524;-77
2023/03/02 09:08:08;;;;;;;4.90;4.50;;;9.90;52.50;;;;;;4999936;28;20464;-75
2023/03/02 09:10:34;;;;;;;5.50;4.82;;;9.80;52.30;;;;;;4996689;28;20045;-76
2023/03/02 09:13:01;;;;;;;5.57;5.00;;;9.80;52.10;;;;;;4998723;28;20307;-76
2023/03/02 09:15:27;;;;;;;6.60;5.25;;;9.80;52.10;;;;;;4997876;28;20433;-74
2023/03/02 09:17:53;;;;;;;6.40;5.50;;;9.80;52.00;;;;;;5000448;28;20135;-75
2023/03/02 09:20:19;;;;;;;5.85;5.22;;;9.80;52.00;;;;;;4990277;28;20030;-76
2023/03/02 09:22:49;;;;;;;6.30;5.57;;;9.80;51.90;;;;;;4998644;28;20492;-76
2023/03/02 09:25:19;;;;;;;7.70;6.47;;;9.80;51.90;;;;;;4979860;28;20042;-76
2023/03/02 09:27:46;;;;;;;6.53;5.93;;;9.80;51.80;;;;;;4997878;28;20056;-76
2023/03/02 09:30:13;;;;;;;7.40;6.70;;;9.80;51.60;;;;;;4989402;28;20468;-75
2023/03/02 09:32:40;;;;;;;7.13;6.50;;;9.90;51.70;;;;;;4999880;28;20538;-75
2023/03/02 09:35:07;;;;;;;7.00;6.30;;;9.90;51.50;;;;;;4999189;28;20427;-76
2023/03/02 09:37:36;;;;;;;7.68;6.90;;;9.90;51.40;;;;;;4990969;28;20035;-75
2023/03/02 09:40:02;;;;;;;7.97;7.18;;;10.00;51.40;;;;;;4998175;28;20030;-75
2023/03/02 09:42:41;;;;;;;9.00;7.72;;;10.00;51.30;;;;;;4980967;28;20054;-75
2023/03/02 09:45:47;;;;;;;9.73;7.80;;;10.00;51.20;;;;;;4998956;28;20073;-75
2023/03/02 09:48:37;;;;;;;7.65;6.88;;;10.10;51.00;;;;;;4995069;28;20164;-76
2023/03/02 09:51:06;;;;;;;8.82;7.22;;;10.10;51.40;;;;;;4992622;28;20475;-75
2023/03/02 09:53:45;;;;;;;9.20;7.90;;;10.20;51.70;;;;;;4998394;28;20042;-75
2023/03/02 09:56:18;;;;;;;8.30;7.50;;;10.20;52.10;;;;;;4988909;28;20034;-75
2023/03/02 09:59:04;;;;;;;8.23;7.43;;;10.30;51.40;;;;;;4997825;28;20045;-76
2023/03/02 10:02:19;;;;;;;8.25;7.45;;;10.30;51.40;;;;;;4997266;28;20049;-75
2023/03/02 10:04:51;;;;;;;7.70;7.00;;;10.30;51.20;;;;;;4970730;28;20262;-75
2023/03/02 10:07:31;;;;;;;9.05;8.02;;;10.40;51.40;;;;;;4982468;28;20030;-74
2023/03/02 10:10:41;;;;;;;10.02;8.35;;;10.40;51.20;;;;;;4996141;28;20033;-77
2023/03/02 10:13:27;;;;;;;9.38;8.48;;;10.40;50.90;;;;;;4978921;28;20099;-75
2023/03/02 10:16:35;;;;;;;8.45;7.65;;;10.50;51.00;;;;;;4979175;28;20042;-76
2023/03/02 10:19:23;;;;;;;9.07;8.00;;;10.60;50.90;;;;;;4988888;28;20426;-77
2023/03/02 10:22:20;;;;;;;10.15;8.68;;;10.70;51.00;;;;;;4993293;28;20036;-76
2023/03/02 10:25:12;;;;;;;10.15;9.15;;;10.70;50.80;;;;;;4988796;28;20338;-77
2023/03/02 10:27:42;;;;;;;10.95;9.15;;;10.80;50.80;;;;;;4981838;28;20026;-77
2023/03/02 10:30:26;;;;;;;10.57;9.40;;;10.80;50.60;;;;;;4988059;28;20042;-76
2023/03/02 10:32:55;;;;;;;10.13;9.23;;;11.00;50.70;;;;;;4995407;28;20439;-77
2023/03/02 10:35:24;;;;;;;9.98;8.98;;;11.00;50.40;;;;;;4999315;28;20099;-76
2023/03/02 10:37:59;;;;;;;9.90;8.88;;;11.20;51.10;;;;;;4998299;28;20062;-76
2023/03/02 10:40:48;;;;;;;11.40;9.25;;;11.30;50.50;;;;;;4994602;28;20046;-78
2023/03/02 10:43:41;;;;;;;10.82;9.77;;;11.40;50.10;;;;;;4988419;28;20041;-78
2023/03/02 10:46:10;;;;;;;9.90;8.88;;;11.50;50.10;;;;;;4998703;28;20042;-77
2023/03/02 10:49:21;;;;;;;10.23;9.10;;;11.70;50.20;;;;;;5001565;28;20282;-76
2023/03/02 10:52:13;;;;;;;10.68;9.07;;;11.70;49.70;;;;;;4995242;28;20353;-74
2023/03/02 10:54:40;;;;;;;10.70;8.85;;;11.90;50.00;;;;;;5011857;28;20026;-75
2023/03/02 10:57:37;;;;;;;9.48;8.57;;;12.00;50.00;;;;;;5004083;28;20030;-74
2023/03/02 11:00:17;;;;;;;10.05;8.73;;;12.10;49.60;;;;;;4979416;28;20134;-75
2023/03/02 11:02:54;;;;;;;10.40;9.07;;;12.30;49.80;;;;;;4997325;28;20038;-75
2023/03/02 11:05:44;;;;;;;11.93;9.98;;;12.40;49.70;;;;;;5008709;28;20049;-75
2023/03/02 11:08:17;;;;;;;9.15;8.23;;;12.50;49.70;;;;;;5008374;28;20065;-76
2023/03/02 11:11:03;;;;;;;9.50;8.70;;;12.50;49.50;;;;;;4994259;28;20108;-75
2023/03/02 11:13:35;;;;;;;10.05;9.05;;;12.60;49.50;;;;;;5003023;28;21647;-75
2023/03/02 11:16:29;;;;;;;12.68;10.45;;;12.70;49.50;;;;;;5003791;28;20094;-76
2023/03/02 11:19:02;;;;;;;10.93;9.48;;;12.70;49.20;;;;;;4984495;28;20109;-76
2023/03/02 11:21:36;;;;;;;10.30;9.38;;;12.80;49.40;;;;;;4995696;28;20535;-75
2023/03/02 11:24:12;;;;;;;11.52;10.23;;;12.80;49.30;;;;;;5002096;28;20105;-76
2023/03/02 11:26:55;;;;;;;10.70;9.55;;;12.80;49.30;;;;;;5000695;28;20084;-77
2023/03/02 11:29:40;;;;;;;10.63;9.45;;;12.80;49.10;;;;;;5001202;28;20033;-75
2023/03/02 11:32:16;;;;;;;11.43;10.23;;;12.80;49.00;;;;;;4993265;28;20121;-75
2023/03/02 11:34:50;;;;;;;12.55;10.73;;;12.90;49.20;;;;;;4984303;28;20550;-74
2023/03/02 11:37:44;;;;;;;11.60;10.13;;;12.80;48.80;;;;;;5002010;28;20034;-77
2023/03/02 11:40:25;;;;;;;11.00;9.90;;;12.90;48.80;;;;;;5012945;28;20038;-75
2023/03/02 11:42:54;;;;;;;11.30;10.25;;;12.90;48.80;;;;;;4999748;28;20037;-75
2023/03/02 11:45:45;;;;;;;14.52;11.73;;;12.90;48.80;;;;;;4990467;28;20019;-75
2023/03/02 11:48:22;;;;;;;14.18;10.68;;;13.00;48.50;;;;;;4967664;28;20034;-73
2023/03/02 11:51:04;;;;;;;12.60;10.75;;;13.00;48.60;;;;;;5000389;28;20062;-75
2023/03/02 11:53:43;;;;;;;10.63;9.37;;;13.20;48.90;;;;;;4995493;28;20369;-76
2023/03/02 11:56:09;;;;;;;12.55;10.43;;;13.30;48.80;;;;;;4979980;28;20037;-76
2023/03/02 11:58:37;;;;;;;12.57;9.68;;;13.30;48.80;;;;;;5002964;28;20030;-75
2023/03/02 12:01:08;;;;;;;11.20;10.10;;;13.40;48.70;;;;;;4999974;28;20762;-77
2023/03/02 12:03:37;;;;;;;11.98;10.85;;;13.40;48.50;;;;;;4998507;28;20512;-74
2023/03/02 12:06:26;;;;;;;12.88;11.57;;;13.50;48.50;;;;;;5001669;28;20400;-75
2023/03/02 12:09:06;;;;;;;12.18;10.90;;;13.40;47.90;;;;;;5000227;28;20217;-75
2023/03/02 12:11:39;;;;;;;12.40;11.10;;;13.50;48.30;;;;;;4993349;28;20081;-75
2023/03/02 12:14:26;;;;;;;12.05;10.82;;;13.40;48.00;;;;;;4993171;28;20061;-76
2023/03/02 12:17:04;;;;;;;11.60;10.38;;;13.40;47.70;;;;;;4991839;28;20069;-74
2023/03/02 12:19:43;;;;;;;12.98;11.68;;;13.40;47.60;;;;;;5000059;28;20069;-74
2023/03/02 12:22:13;;;;;;;12.57;11.27;;;13.40;47.50;;;;;;4988358;28;20117;-76
2023/03/02 12:24:43;;;;;;;12.50;11.20;;;13.40;47.50;;;;;;4998071;28;20037;-70
2023/03/02 12:27:12;;;;;;;17.48;12.60;;;13.40;47.40;;;;;;5001524;28;20377;-75
2023/03/02 12:29:48;;;;;;;12.77;11.48;;;13.40;47.40;;;;;;4999764;28;20777;-76
2023/03/02 12:32:26;;;;;;;14.60;12.23;;;13.30;47.20;;;;;;4999430;28;20038;-76
2023/03/02 12:35:07;;;;;;;13.23;11.82;;;13.20;47.00;;;;;;4989001;28;20030;-75
2023/03/02 12:37:39;;;;;;;12.73;11.45;;;13.20;47.10;;;;;;5000574;28;20344;-75
2023/03/02 12:40:21;;;;;;;13.68;12.38;;;13.10;47.10;;;;;;5000066;28;20034;-75
2023/03/02 12:43:09;;;;;;;13.20;11.73;;;13.00;46.70;;;;;;4983380;28;20037;-76
2023/03/02 12:46:12;;;;;;;13.25;11.93;;;12.90;46.60;;;;;;4999071;28;20116;-76
2023/03/02 12:48:47;;;;;;;13.40;12.00;;;12.90;46.50;;;;;;4998301;28;20319;-76
2023/03/02 12:51:20;;;;;;;12.65;11.38;;;12.90;46.90;;;;;;4993644;28;20475;-75
2023/03/02 12:53:48;;;;;;;12.98;11.70;;;12.80;46.70;;;;;;4982901;28;20468;-75
2023/03/02 12:56:23;;;;;;;12.93;11.70;;;12.80;46.80;;;;;;4998876;28;20033;-75
2023/03/02 12:58:51;;;;;;;12.70;11.50;;;12.70;46.50;;;;;;4984328;28;20037;-75
2023/03/02 13:01:27;;;;;;;14.82;12.43;;;12.70;46.60;;;;;;4997619;28;20099;-75
2023/03/02 13:03:54;;;;;;;12.32;11.10;;;12.80;46.60;;;;;;4996941;28;20531;-75
2023/03/02 13:06:22;;;;;;;12.57;11.30;;;12.80;46.60;;;;;;4996903;28;20061;-74
2023/03/02 13:08:52;;;;;;;13.25;12.02;;;12.80;46.50;;;;;;4998111;28;20164;-75